Latest Weather Observations for Nullarbor

IDS60801

Issued at 3:31 am CST Friday 6 May 2016 (issued every 30 minutes, with the page automatically refreshed every 10 minutes)

About weather observations | Map of weather stations | Latest weather observations for SA | Other Formats
Station Details ID: 018106 Name: NULLARBOR Lat: -31.45 Lon: 130.90 Height: 64.0 m
Data from the previous 72 hours. | See also: Recent months at Nullarbor
Date/Time
CST
Temp
°C
App
Temp
°C
Dew
Point
Rel
Hum
%
Delta-T
°C
Wind Press
QNH
hPa
Press
MSL
hPa
Rain
since 9 am
mm
Dir
 
Spd
km/h
Gust
km/h
Spd
kts
Gust
kts
06/03:30am 13.9 12.7 13.9 100 0.0 SE 13 15 7 8 1014.2 1014.1 0.0
06/03:00am 13.4 12.3 13.2 99 0.1 SE 11 11 6 6 1014.4 1014.3 0.0
06/02:30am 13.1 12.3 12.9 99 0.1 SE 9 11 5 6 1014.5 1014.4 0.0
06/02:00am 14.2 13.0 14.0 99 0.1 SSE 13 13 7 7 1014.4 1014.3 0.0
06/01:30am 14.2 13.0 14.0 99 0.1 S 13 13 7 7 1014.5 1014.4 0.0
06/01:00am 14.1 12.9 13.9 99 0.1 S 13 15 7 8 1014.4 1014.3 0.0
06/12:30am 14.1 12.5 13.9 99 0.1 S 15 17 8 9 1014.5 1014.4 0.0
06/12:00am 13.6 12.2 13.4 99 0.1 SSW 13 17 7 9 1014.6 1014.5 0.0
 
Date/Time
CST
Temp
°C
App
Temp
°C
Dew
Point
Rel
Hum
%
Delta-T
°C
Wind Press
QNH
hPa
Press
MSL
hPa
Rain
since 9 am
mm
Dir
 
Spd
km/h
Gust
km/h
Spd
kts
Gust
kts
05/11:30pm 14.3 13.5 14.1 99 0.1 S 11 13 6 7 1014.7 1014.6 0.0
05/11:00pm 14.2 13.4 14.0 99 0.1 SSW 11 13 6 7 1014.6 1014.5 0.0
05/10:30pm 14.9 13.9 14.7 99 0.1 S 13 15 7 8 1014.5 1014.4 0.0
05/10:00pm 14.6 13.1 14.1 97 0.3 SSW 15 17 8 9 1014.6 1014.5 0.0
05/09:30pm 15.0 13.9 14.2 95 0.5 SW 13 15 7 8 1014.6 1014.5 0.0
05/09:00pm 15.3 14.2 14.3 94 0.6 SW 13 17 7 9 1014.4 1014.3 0.0
05/08:30pm 16.2 15.3 14.9 92 0.8 SW 13 15 7 8 1013.9 1013.8 0.0
05/08:00pm 16.8 16.3 15.0 89 1.0 SW 11 13 6 7 1013.6 1013.5 0.0
05/07:30pm 17.6 17.5 15.0 85 1.5 WSW 9 11 5 6 1013.3 1013.2 0.0
05/07:00pm 18.3 17.5 15.2 82 1.8 SW 13 17 7 9 1013.1 1013.0 0.0
05/06:30pm 18.9 17.8 15.2 79 2.2 SW 15 20 8 11 1012.6 1012.5 0.0
05/06:00pm 19.6 17.3 14.6 73 2.9 SSW 20 24 11 13 1011.7 1011.6 0.0
05/05:30pm 20.6 17.2 13.6 64 4.0 SSW 24 30 13 16 1011.4 1011.3 0.0
05/05:00pm 22.0 17.2 11.7 52 5.8 SSW 28 35 15 19 1011.0 1010.9 0.0
05/04:30pm 23.4 18.8 9.8 42 7.4 SW 24 33 13 18 1010.8 1010.7 0.0
05/04:00pm 24.2 19.5 10.8 43 7.5 SSW 26 35 14 19 1010.4 1010.3 0.0
05/03:38pm 24.9 18.8 10.4 40 8.1 SW 33 41 18 22 1010.3 1010.2 0.0
05/03:30pm 26.3 20.1 9.2 34 9.4 SW 32 39 17 21 1010.0 1009.9 0.0
05/03:21pm 27.2 20.8 8.6 31 10.2 SW 32 43 17 23 1009.8 1009.7 0.0
05/03:00pm 30.7 24.4 3.7 18 13.9 WNW 26 35 14 19 1009.7 1009.6 0.0
05/02:30pm 30.1 24.8 3.2 18 13.6 W 20 30 11 16 1009.9 1009.8 0.0
05/02:00pm 30.5 25.7 2.7 17 14.0 WNW 17 28 9 15 1010.2 1010.1 0.0
05/01:30pm 29.6 24.7 2.0 17 13.7 NW 17 30 9 16 1010.5 1010.4 0.0
05/01:00pm 29.6 23.7 2.0 17 13.6 WNW 22 33 12 18 1011.0 1010.9 0.0
05/12:30pm 29.3 23.2 2.5 18 13.3 NW 24 35 13 19 1011.6 1011.5 0.0
05/12:00pm 29.1 23.4 3.1 19 13.1 NW 22 32 12 17 1012.2 1012.1 0.0
05/11:30am 28.0 22.2 4.3 22 12.1 NW 24 33 13 18 1012.8 1012.7 0.0
05/11:00am 26.3 19.8 4.7 25 11.0 NNW 28 35 15 19 1013.3 1013.2 0.0
05/10:30am 25.2 18.9 5.9 29 9.9 NNW 28 35 15 19 1013.5 1013.4 0.0
05/10:00am 23.2 17.5 6.9 35 8.4 NNW 26 39 14 21 1013.7 1013.6 0.0
05/09:30am 20.8 15.7 7.8 43 6.7 N 24 30 13 16 1013.6 1013.5 0.0
05/09:00am 17.9 13.6 7.9 52 5.1 N 20 26 11 14 1013.6 1013.5 0.0
05/08:30am 14.7 10.5 7.5 62 3.6 N 19 26 10 14 1013.5 1013.4 0.0
05/08:00am 12.0 7.7 6.9 71 2.4 N 19 20 10 11 1013.2 1013.1 0.0
05/07:30am 10.4 6.0 6.4 76 1.9 N 19 20 10 11 1013.0 1012.9 0.0
05/07:00am 9.5 5.3 5.7 77 1.7 N 17 19 9 10 1013.0 1012.9 0.0
05/06:30am 9.9 5.7 5.7 75 1.9 N 17 19 9 10 1012.9 1012.8 0.0
05/06:00am 11.1 7.0 6.0 71 2.4 N 17 19 9 10 1012.7 1012.6 0.0
05/05:30am 11.7 7.3 6.4 70 2.5 N 19 22 10 12 1012.6 1012.5 0.0
05/05:00am 11.8 7.8 6.5 70 2.5 N 17 20 9 11 1012.7 1012.6 0.0
05/04:30am 12.9 8.4 7.1 68 2.8 N 20 22 11 12 1012.7 1012.6 0.0
05/04:00am 12.6 8.3 7.1 69 2.7 N 19 22 10 12 1012.8 1012.7 0.0
05/03:30am 12.0 7.5 6.9 71 2.4 N 20 24 11 13 1013.0 1012.9 0.0
05/03:00am 12.0 7.7 6.9 71 2.4 NNE 19 20 10 11 1013.3 1013.2 0.0
05/02:30am 11.1 7.2 7.2 77 1.9 NNE 17 17 9 9 1013.3 1013.2 0.0
05/02:00am 9.9 5.8 6.4 79 1.6 NNE 17 19 9 10 1013.7 1013.6 0.0
05/01:30am 10.3 6.3 6.8 79 1.7 NNE 17 19 9 10 1013.8 1013.7 0.0
05/01:00am 11.1 7.4 7.8 80 1.6 NNE 17 19 9 10 1014.0 1013.9 0.0
05/12:30am 11.1 7.8 8.0 81 1.5 NNE 15 17 8 9 1014.2 1014.1 0.0
05/12:00am 11.9 8.4 8.9 82 1.5 NNE 17 19 9 10 1014.3 1014.2 0.0
 
Date/Time
CST
Temp
°C
App
Temp
°C
Dew
Point
Rel
Hum
%
Delta-T
°C
Wind Press
QNH
hPa
Press
MSL
hPa
Rain
since 9 am
mm
Dir
 
Spd
km/h
Gust
km/h
Spd
kts
Gust
kts
04/11:30pm 12.5 9.3 10.0 85 1.3 NE 17 19 9 10 1014.4 1014.3 0.0
04/11:00pm 12.5 9.7 10.0 85 1.3 NE 15 17 8 9 1014.9 1014.8 0.0
04/10:30pm 13.2 10.7 10.9 86 1.2 ENE 15 19 8 10 1015.3 1015.2 0.0
04/10:09pm 13.2 10.3 11.1 87 1.1 ENE 17 17 9 9 1015.4 1015.3 0.0
04/10:00pm 13.2 10.8 11.4 89 1.0 ENE 15 17 8 9 1015.5 1015.4 0.0
04/09:30pm 13.4 11.2 12.0 91 0.8 ENE 15 17 8 9 1015.6 1015.5 0.0
04/09:00pm 14.2 12.3 13.1 93 0.6 E 15 17 8 9 1015.8 1015.7 0.0
04/08:45pm 14.4 12.5 13.1 92 0.7 ENE 15 17 8 9 1015.7 1015.6 0.0
04/08:30pm 14.7 12.9 13.2 91 0.8 E 15 17 8 9 1015.8 1015.7 0.0
04/08:00pm 14.7 13.0 12.6 87 1.2 E 13 15 7 8 1015.9 1015.8 0.0
04/07:30pm 15.3 13.6 12.6 84 1.5 E 13 15 7 8 1015.6 1015.5 0.0
04/07:00pm 16.1 14.7 12.3 78 2.1 ESE 11 13 6 7 1015.5 1015.4 0.0
04/06:30pm 17.5 15.8 12.4 72 2.8 ESE 13 15 7 8 1015.2 1015.1 0.0
04/06:00pm 19.0 17.3 12.5 66 3.6 SE 13 17 7 9 1015.1 1015.0 0.0
04/05:30pm 20.1 17.6 12.3 61 4.4 SE 17 20 9 11 1015.0 1014.9 0.0
04/05:00pm 21.5 19.0 12.4 56 5.2 SSE 17 22 9 12 1015.0 1014.9 0.0
04/04:30pm 24.0 20.4 8.4 37 8.3 WNW 17 26 9 14 1015.1 1015.0 0.0
04/04:00pm 24.0 20.5 8.8 38 8.2 NW 17 24 9 13 1015.2 1015.1 0.0
04/03:30pm 24.4 21.0 9.2 38 8.3 NNW 17 24 9 13 1015.3 1015.2 0.0
04/03:00pm 23.7 20.8 9.7 41 7.6 WNW 15 24 8 13 1015.5 1015.4 0.0
04/02:30pm 23.3 20.0 9.7 42 7.4 NW 17 30 9 16 1015.8 1015.7 0.0
04/02:00pm 23.1 20.0 10.2 44 7.1 NW 17 28 9 15 1016.1 1016.0 0.0
04/01:30pm 22.7 19.7 10.5 46 6.7 NNW 17 28 9 15 1016.6 1016.6 0.0
04/01:00pm 22.0 19.0 10.5 48 6.3 WNW 17 26 9 14 1017.2 1017.2 0.0
04/12:30pm 21.4 18.9 11.1 52 5.7 WNW 15 24 8 13 1017.8 1017.8 0.0
04/12:00pm 20.6 19.1 11.8 57 4.9 NW 11 15 6 8 1018.3 1018.3 0.0
04/11:30am 19.8 17.6 12.1 61 4.3 NNW 15 20 8 11 1018.9 1018.9 0.0
04/11:00am 18.8 16.1 12.8 68 3.4 NNW 19 24 10 13 1019.4 1019.4 0.0
04/10:30am 17.4 15.1 14.1 81 1.9 NNW 19 24 10 13 1019.7 1019.7 0.0
04/10:00am 15.3 - - - - NNW 17 20 9 11 1019.8 1019.8 0.0
04/09:52am 14.6 - - - - NNW 17 20 9 11 1019.9 1019.9 0.0
04/09:40am 13.8 - - - - NNW 19 24 10 13 1020.0 1020.0 0.0
04/09:30am 13.5 - - - - NNW 17 20 9 11 1020.0 1020.0 0.0
04/09:00am 11.9 - - - - NNW 19 24 10 13 1019.8 1019.8 0.2
04/08:30am 10.4 7.7 10.4 100 0.0 NNW 15 19 8 10 1019.6 1019.6 0.2
04/08:00am 8.8 6.1 8.8 100 0.0 NNW 13 17 7 9 1019.3 1019.3 0.2
04/07:30am 7.8 4.8 7.8 100 0.0 NNW 13 17 7 9 1019.0 1019.0 0.2
04/07:20am 7.6 4.6 7.6 100 0.0 NNW 13 15 7 8 1018.8 1018.8 0.2
04/07:00am 7.7 4.7 7.7 100 0.0 NNW 13 15 7 8 1018.8 1018.8 0.2
04/06:58am 7.7 4.7 7.7 100 0.0 NNW 13 15 7 8 1018.8 1018.8 0.2
04/06:30am 7.7 5.1 7.7 100 0.0 NNW 11 13 6 7 1018.7 1018.7 0.0
04/06:00am 7.9 4.9 7.9 100 0.0 NNW 13 15 7 8 1018.3 1018.3 0.0
04/05:51am 7.9 4.9 7.9 100 0.0 NNW 13 15 7 8 1018.3 1018.3 0.0
04/05:30am 8.4 5.6 8.4 100 0.0 NNW 13 13 7 7 1018.1 1018.1 0.0
04/05:00am 8.7 5.9 8.7 100 0.0 NNW 13 15 7 8 1018.0 1018.0 0.0
04/04:37am 9.1 6.8 9.1 100 0.0 NW 11 13 6 7 1018.0 1018.0 0.0
04/04:30am 9.0 6.7 9.0 100 0.0 NW 11 13 6 7 1018.0 1018.0 0.0
04/04:00am 9.5 7.3 9.5 100 0.0 NW 11 13 6 7 1017.9 1017.9 0.0
04/03:55am 9.5 7.3 9.5 100 0.0 NW 11 13 6 7 1018.0 1018.0 0.0
04/03:30am 9.7 7.6 9.7 100 0.0 NW 11 13 6 7 1018.1 1018.1 0.0
04/03:07am 10.4 8.5 10.4 100 0.0 NW 11 13 6 7 1018.3 1018.3 0.0
04/03:00am 10.4 8.1 10.4 100 0.0 NW 13 13 7 7 1018.2 1018.2 0.0
04/02:40am 10.7 8.9 10.7 100 0.0 NW 11 13 6 7 1018.2 1018.2 0.0
04/02:30am 10.7 8.5 10.7 100 0.0 NNW 13 15 7 8 1018.2 1018.2 0.0
04/02:23am 10.6 8.3 10.6 100 0.0 NNW 13 15 7 8 1018.1 1018.1 0.0
04/02:00am 11.5 10.3 11.5 100 0.0 NNW 9 11 5 6 1018.0 1018.0 0.0
04/01:30am 11.7 10.5 11.7 100 0.0 WNW 9 13 5 7 1018.2 1018.2 0.0
04/01:25am 11.7 10.1 11.7 100 0.0 WNW 11 17 6 9 1018.3 1018.3 0.0
04/01:13am 11.2 9.5 11.2 100 0.0 WNW 11 19 6 10 1018.3 1018.3 0.0
04/01:04am 11.9 10.8 11.9 100 0.0 WSW 9 13 5 7 1018.2 1018.2 0.0
04/01:00am 12.4 11.1 12.4 100 0.0 SW 11 15 6 8 1018.2 1018.2 0.0
04/12:30am 13.0 11.9 13.0 100 0.0 WSW 11 13 6 7 1018.3 1018.3 0.0
04/12:00am 12.3 11.2 12.1 99 0.1 W 9 9 5 5 1018.5 1018.5 0.0
 
Date/Time
CST
Temp
°C
App
Temp
°C
Dew
Point
Rel
Hum
%
Delta-T
°C
Wind Press
QNH
hPa
Press
MSL
hPa
Rain
since 9 am
mm
Dir
 
Spd
km/h
Gust
km/h
Spd
kts
Gust
kts
03/11:45pm 13.3 12.6 13.1 99 0.1 W 9 9 5 5 1018.6 1018.6 0.0
03/11:30pm 13.8 13.2 13.6 99 0.1 W 9 9 5 5 1018.7 1018.7 0.0
03/11:00pm 13.6 13.5 13.4 99 0.1 W 6 7 3 4 1019.0 1019.0 0.0
03/10:30pm 14.1 13.6 13.9 99 0.1 WNW 9 15 5 8 1019.0 1019.0 0.0
03/10:00pm 13.9 12.2 13.7 99 0.1 SW 15 17 8 9 1019.2 1019.2 0.0
03/09:30pm 13.8 13.1 13.2 96 0.3 SSW 9 11 5 6 1019.2 1019.2 0.0
03/09:00pm 14.3 13.2 13.0 92 0.7 SW 11 13 6 7 1019.3 1019.3 0.0
03/08:30pm 14.7 13.1 12.9 89 1.0 SW 13 15 7 8 1019.0 1019.0 0.0
03/08:00pm 15.5 15.2 13.2 86 1.3 SW 7 9 4 5 1018.8 1018.8 0.0
03/07:30pm 16.0 15.4 13.5 85 1.4 SW 9 11 5 6 1018.5 1018.5 0.0
03/07:00pm 16.5 14.7 13.4 82 1.7 SW 15 19 8 10 1018.0 1018.0 0.0
03/06:30pm 17.8 14.4 12.5 71 2.9 WSW 22 28 12 15 1017.6 1017.6 0.0
03/06:00pm 18.3 13.5 11.8 66 3.6 WSW 28 37 15 20 1017.1 1017.1 0.0
03/05:30pm 18.8 15.2 13.0 69 3.3 WSW 24 35 13 19 1017.0 1017.0 0.0
03/05:00pm 19.2 15.0 13.6 70 3.2 WSW 28 35 15 19 1016.9 1016.9 0.0
03/04:30pm 19.3 15.2 13.9 71 3.1 WSW 28 37 15 20 1016.5 1016.4 0.0
03/04:00pm 19.7 15.0 13.2 66 3.7 WSW 30 37 16 20 1016.3 1016.2 0.0
03/03:30pm 18.9 12.6 13.5 71 3.1 WSW 39 52 21 28 1016.0 1015.9 0.0
03/03:00pm 20.3 14.8 12.0 59 4.6 WSW 32 43 17 23 1015.5 1015.4 0.0
03/02:30pm 20.7 15.9 11.6 56 5.1 WSW 28 41 15 22 1015.5 1015.4 0.0
03/02:00pm 19.9 14.8 13.6 67 3.6 SW 33 48 18 26 1015.5 1015.4 0.0
03/01:30pm 20.5 15.0 12.0 58 4.8 WSW 32 46 17 25 1015.7 1015.6 0.0
03/01:00pm 20.8 15.4 12.2 58 4.8 WSW 32 43 17 23 1015.9 1015.8 0.0
03/12:30pm 21.4 17.3 12.8 58 4.9 W 26 41 14 22 1015.9 1015.8 0.0
03/12:00pm 19.5 15.3 13.4 68 3.5 W 28 37 15 20 1016.3 1016.2 0.0
03/11:45am 19.3 14.9 13.0 67 3.6 W 28 50 15 27 1016.6 1016.6 0.0
03/11:30am 19.5 15.5 13.0 66 3.7 W 26 39 14 21 1016.6 1016.6 0.0
03/11:00am 19.7 15.3 12.9 65 3.9 W 28 39 15 21 1016.7 1016.7 0.0
03/10:30am 19.7 15.2 12.5 63 4.0 W 28 37 15 20 1016.5 1016.4 0.0
03/10:00am 17.9 14.6 11.7 67 3.4 W 20 28 11 15 1016.4 1016.3 0.0
03/09:30am 16.9 12.8 11.4 70 3.0 W 24 37 13 20 1016.4 1016.3 0.0
03/09:00am 15.3 11.1 8.1 62 3.6 WNW 20 28 11 15 1016.1 1016.0 0.0
03/08:30am 12.8 7.5 5.2 60 3.5 NW 22 28 12 15 1015.8 1015.7 0.0
03/08:00am 10.8 6.2 3.6 61 3.2 NW 17 20 9 11 1015.4 1015.3 0.0
03/07:30am 9.5 4.8 3.0 64 2.8 NW 17 22 9 12 1015.2 1015.1 0.0
03/07:00am 9.1 4.7 2.7 64 2.7 NW 15 19 8 10 1014.9 1014.8 0.0
03/06:30am 9.1 4.2 2.2 62 2.9 NW 17 19 9 10 1014.7 1014.6 0.0
03/06:00am 9.0 4.1 1.9 61 3.0 WNW 17 20 9 11 1014.5 1014.4 0.0
03/05:30am 9.2 3.9 1.9 60 3.1 WNW 19 22 10 12 1014.2 1014.1 0.0
03/05:00am 8.0 3.8 1.4 63 2.7 NW 13 17 7 9 1014.0 1013.9 0.0
03/04:30am 8.5 4.3 1.6 62 2.8 NW 13 17 7 9 1013.7 1013.6 0.0
03/04:00am 8.3 3.7 1.7 63 2.7 NW 15 19 8 10 1013.5 1013.4 0.0

Other Formats:

Comma delimited format used in spreadsheet applications
http://www.bom.gov.au/fwo/IDS60801/IDS60801.94651.axf

JavaScript Object Notation format (JSON) in row-major order
http://www.bom.gov.au/fwo/IDS60801/IDS60801.94651.json